sensor_id;sensor_type;location;lat;lon;timestamp;temperature;humidity
19309;DHT22;9789;50.010;19.890;2022-10-04T00:01:08;21.30;93.70
19309;DHT22;9789;50.010;19.890;2022-10-04T00:03:39;21.30;93.60
19309;DHT22;9789;50.010;19.890;2022-10-04T00:06:12;21.30;93.40
19309;DHT22;9789;50.010;19.890;2022-10-04T00:08:43;21.30;93.30
19309;DHT22;9789;50.010;19.890;2022-10-04T00:11:13;21.30;93.20
19309;DHT22;9789;50.010;19.890;2022-10-04T00:13:45;21.30;93.20
19309;DHT22;9789;50.010;19.890;2022-10-04T00:16:18;21.30;93.10
19309;DHT22;9789;50.010;19.890;2022-10-04T00:18:52;21.30;93.00
19309;DHT22;9789;50.010;19.890;2022-10-04T00:21:30;21.30;93.00
19309;DHT22;9789;50.010;19.890;2022-10-04T00:24:19;21.30;93.10
19309;DHT22;9789;50.010;19.890;2022-10-04T00:29:37;21.30;93.00
19309;DHT22;9789;50.010;19.890;2022-10-04T00:32:22;21.20;92.90
19309;DHT22;9789;50.010;19.890;2022-10-04T00:34:52;21.30;92.80
19309;DHT22;9789;50.010;19.890;2022-10-04T00:37:21;21.20;92.80
19309;DHT22;9789;50.010;19.890;2022-10-04T00:39:55;21.30;92.90
19309;DHT22;9789;50.010;19.890;2022-10-04T00:42:33;21.30;92.90
19309;DHT22;9789;50.010;19.890;2022-10-04T00:45:05;21.20;92.80
19309;DHT22;9789;50.010;19.890;2022-10-04T00:47:52;21.20;92.70
19309;DHT22;9789;50.010;19.890;2022-10-04T00:50:24;21.20;92.60
19309;DHT22;9789;50.010;19.890;2022-10-04T00:52:55;21.20;92.50
19309;DHT22;9789;50.010;19.890;2022-10-04T00:55:24;21.20;92.40
19309;DHT22;9789;50.010;19.890;2022-10-04T00:57:55;21.20;92.40
19309;DHT22;9789;50.010;19.890;2022-10-04T01:00:25;21.20;92.40
19309;DHT22;9789;50.010;19.890;2022-10-04T01:02:54;21.20;92.50
19309;DHT22;9789;50.010;19.890;2022-10-04T01:05:28;21.20;92.40
19309;DHT22;9789;50.010;19.890;2022-10-04T01:08:01;21.20;92.50
19309;DHT22;9789;50.010;19.890;2022-10-04T01:10:30;21.20;92.40
19309;DHT22;9789;50.010;19.890;2022-10-04T01:13:00;21.20;92.40
19309;DHT22;9789;50.010;19.890;2022-10-04T01:15:33;21.20;92.20
19309;DHT22;9789;50.010;19.890;2022-10-04T01:18:05;21.20;92.20
19309;DHT22;9789;50.010;19.890;2022-10-04T01:20:37;21.20;92.00
19309;DHT22;9789;50.010;19.890;2022-10-04T01:23:09;21.20;91.90
19309;DHT22;9789;50.010;19.890;2022-10-04T01:25:41;21.20;91.90
19309;DHT22;9789;50.010;19.890;2022-10-04T01:28:09;21.20;91.70
19309;DHT22;9789;50.010;19.890;2022-10-04T01:30:37;21.20;91.60
19309;DHT22;9789;50.010;19.890;2022-10-04T01:33:05;21.20;91.60
19309;DHT22;9789;50.010;19.890;2022-10-04T01:35:33;21.20;91.60
19309;DHT22;9789;50.010;19.890;2022-10-04T01:38:02;21.20;91.60
19309;DHT22;9789;50.010;19.890;2022-10-04T01:40:34;21.10;91.50
19309;DHT22;9789;50.010;19.890;2022-10-04T01:43:03;21.20;91.50
19309;DHT22;9789;50.010;19.890;2022-10-04T01:45:34;21.10;91.60
19309;DHT22;9789;50.010;19.890;2022-10-04T01:48:06;21.10;91.50
19309;DHT22;9789;50.010;19.890;2022-10-04T01:50:36;21.10;91.40
19309;DHT22;9789;50.010;19.890;2022-10-04T01:53:09;21.10;91.50
19309;DHT22;9789;50.010;19.890;2022-10-04T01:55:40;21.10;91.60
19309;DHT22;9789;50.010;19.890;2022-10-04T01:58:11;21.10;91.50
19309;DHT22;9789;50.010;19.890;2022-10-04T02:00:42;21.10;91.50
19309;DHT22;9789;50.010;19.890;2022-10-04T02:03:13;21.10;91.50
19309;DHT22;9789;50.010;19.890;2022-10-04T02:05:43;21.10;91.30
19309;DHT22;9789;50.010;19.890;2022-10-04T02:08:14;21.20;91.30
19309;DHT22;9789;50.010;19.890;2022-10-04T02:10:45;21.10;91.20
19309;DHT22;9789;50.010;19.890;2022-10-04T02:13:16;21.10;91.20
19309;DHT22;9789;50.010;19.890;2022-10-04T02:15:44;21.10;91.20
19309;DHT22;9789;50.010;19.890;2022-10-04T02:18:14;21.10;91.10
19309;DHT22;9789;50.010;19.890;2022-10-04T02:20:43;21.10;91.00
19309;DHT22;9789;50.010;19.890;2022-10-04T02:23:11;21.10;90.90
19309;DHT22;9789;50.010;19.890;2022-10-04T02:25:40;21.10;90.90
19309;DHT22;9789;50.010;19.890;2022-10-04T02:28:09;21.10;90.80
19309;DHT22;9789;50.010;19.890;2022-10-04T02:30:40;21.10;90.70
19309;DHT22;9789;50.010;19.890;2022-10-04T02:33:08;21.10;90.60
19309;DHT22;9789;50.010;19.890;2022-10-04T02:35:36;21.10;90.60
19309;DHT22;9789;50.010;19.890;2022-10-04T02:38:09;21.10;90.70
19309;DHT22;9789;50.010;19.890;2022-10-04T02:40:38;21.10;90.60
19309;DHT22;9789;50.010;19.890;2022-10-04T02:43:11;21.10;90.60
19309;DHT22;9789;50.010;19.890;2022-10-04T02:45:43;21.10;90.50
19309;DHT22;9789;50.010;19.890;2022-10-04T02:48:20;21.10;90.30
19309;DHT22;9789;50.010;19.890;2022-10-04T02:50:50;21.10;90.20
19309;DHT22;9789;50.010;19.890;2022-10-04T02:53:20;21.10;90.20
19309;DHT22;9789;50.010;19.890;2022-10-04T02:55:52;21.10;90.10
19309;DHT22;9789;50.010;19.890;2022-10-04T02:58:22;21.10;90.00
19309;DHT22;9789;50.010;19.890;2022-10-04T03:00:51;21.00;90.00
19309;DHT22;9789;50.010;19.890;2022-10-04T03:03:23;21.10;89.90
19309;DHT22;9789;50.010;19.890;2022-10-04T03:05:53;21.00;89.70
19309;DHT22;9789;50.010;19.890;2022-10-04T03:08:22;21.10;89.80
19309;DHT22;9789;50.010;19.890;2022-10-04T03:10:50;21.10;89.90
19309;DHT22;9789;50.010;19.890;2022-10-04T03:13:18;21.00;89.80
19309;DHT22;9789;50.010;19.890;2022-10-04T03:15:48;21.00;89.60
19309;DHT22;9789;50.010;19.890;2022-10-04T03:18:16;21.00;89.40
19309;DHT22;9789;50.010;19.890;2022-10-04T03:20:45;21.00;89.30
19309;DHT22;9789;50.010;19.890;2022-10-04T03:23:13;21.00;89.30
19309;DHT22;9789;50.010;19.890;2022-10-04T03:25:44;21.00;89.10
19309;DHT22;9789;50.010;19.890;2022-10-04T03:28:14;21.00;88.90
19309;DHT22;9789;50.010;19.890;2022-10-04T03:30:43;21.00;88.80
19309;DHT22;9789;50.010;19.890;2022-10-04T03:33:15;21.00;88.70
19309;DHT22;9789;50.010;19.890;2022-10-04T03:35:43;21.00;88.70
19309;DHT22;9789;50.010;19.890;2022-10-04T03:38:13;21.00;88.80
19309;DHT22;9789;50.010;19.890;2022-10-04T03:40:42;21.00;88.90
19309;DHT22;9789;50.010;19.890;2022-10-04T03:43:11;21.00;88.90
19309;DHT22;9789;50.010;19.890;2022-10-04T03:45:41;21.00;88.70
19309;DHT22;9789;50.010;19.890;2022-10-04T03:48:11;21.00;88.60
19309;DHT22;9789;50.010;19.890;2022-10-04T03:50:42;21.00;88.30
19309;DHT22;9789;50.010;19.890;2022-10-04T03:53:14;21.00;88.30
19309;DHT22;9789;50.010;19.890;2022-10-04T03:55:45;21.00;88.30
19309;DHT22;9789;50.010;19.890;2022-10-04T03:58:13;21.00;88.00
19309;DHT22;9789;50.010;19.890;2022-10-04T04:00:42;21.00;87.90
19309;DHT22;9789;50.010;19.890;2022-10-04T04:03:13;21.00;87.80
19309;DHT22;9789;50.010;19.890;2022-10-04T04:05:44;21.00;87.70
19309;DHT22;9789;50.010;19.890;2022-10-04T04:08:15;21.00;87.70
19309;DHT22;9789;50.010;19.890;2022-10-04T04:10:46;21.00;87.70
19309;DHT22;9789;50.010;19.890;2022-10-04T04:13:17;20.90;88.30
19309;DHT22;9789;50.010;19.890;2022-10-04T04:15:48;21.00;89.50
19309;DHT22;9789;50.010;19.890;2022-10-04T04:18:17;21.10;90.20
19309;DHT22;9789;50.010;19.890;2022-10-04T04:20:46;21.10;90.40
19309;DHT22;9789;50.010;19.890;2022-10-04T04:23:19;21.20;90.60
19309;DHT22;9789;50.010;19.890;2022-10-04T04:25:50;21.20;90.60
19309;DHT22;9789;50.010;19.890;2022-10-04T04:28:22;21.30;90.80
19309;DHT22;9789;50.010;19.890;2022-10-04T04:30:52;21.30;90.90
19309;DHT22;9789;50.010;19.890;2022-10-04T04:33:24;21.40;91.20
19309;DHT22;9789;50.010;19.890;2022-10-04T04:35:55;21.40;91.40
19309;DHT22;9789;50.010;19.890;2022-10-04T04:38:29;21.50;91.60
19309;DHT22;9789;50.010;19.890;2022-10-04T04:40:57;21.50;91.70
19309;DHT22;9789;50.010;19.890;2022-10-04T04:43:34;21.60;92.00
19309;DHT22;9789;50.010;19.890;2022-10-04T04:46:02;21.70;92.20
19309;DHT22;9789;50.010;19.890;2022-10-04T04:48:55;21.60;92.30
19309;DHT22;9789;50.010;19.890;2022-10-04T04:51:27;21.70;92.50
19309;DHT22;9789;50.010;19.890;2022-10-04T04:53:55;21.70;92.60
19309;DHT22;9789;50.010;19.890;2022-10-04T04:56:24;21.70;92.90
19309;DHT22;9789;50.010;19.890;2022-10-04T04:58:53;21.80;93.10
19309;DHT22;9789;50.010;19.890;2022-10-04T05:01:23;21.80;93.50
19309;DHT22;9789;50.010;19.890;2022-10-04T05:03:58;21.80;93.60
19309;DHT22;9789;50.010;19.890;2022-10-04T05:06:28;21.80;93.70
19309;DHT22;9789;50.010;19.890;2022-10-04T05:08:57;21.80;93.80
19309;DHT22;9789;50.010;19.890;2022-10-04T05:11:25;21.80;93.80
19309;DHT22;9789;50.010;19.890;2022-10-04T05:13:55;21.80;93.80
19309;DHT22;9789;50.010;19.890;2022-10-04T05:16:25;21.80;93.80
19309;DHT22;9789;50.010;19.890;2022-10-04T05:18:54;21.80;93.70
19309;DHT22;9789;50.010;19.890;2022-10-04T05:21:24;21.90;93.90
19309;DHT22;9789;50.010;19.890;2022-10-04T05:23:55;21.80;93.90
19309;DHT22;9789;50.010;19.890;2022-10-04T05:26:25;21.80;94.00
19309;DHT22;9789;50.010;19.890;2022-10-04T05:28:54;21.90;94.20
19309;DHT22;9789;50.010;19.890;2022-10-04T05:31:26;21.90;94.30
19309;DHT22;9789;50.010;19.890;2022-10-04T05:33:56;21.90;94.30
19309;DHT22;9789;50.010;19.890;2022-10-04T05:36:35;21.90;94.30
19309;DHT22;9789;50.010;19.890;2022-10-04T05:39:07;21.90;94.30
19309;DHT22;9789;50.010;19.890;2022-10-04T05:41:36;21.90;94.40
19309;DHT22;9789;50.010;19.890;2022-10-04T05:44:16;22.00;94.50
19309;DHT22;9789;50.010;19.890;2022-10-04T05:46:46;22.00;94.60
19309;DHT22;9789;50.010;19.890;2022-10-04T05:49:14;22.00;94.70
19309;DHT22;9789;50.010;19.890;2022-10-04T05:51:48;22.00;94.70
19309;DHT22;9789;50.010;19.890;2022-10-04T05:54:19;21.00;94.60
19309;DHT22;9789;50.010;19.890;2022-10-04T06:02:19;22.00;94.70
19309;DHT22;9789;50.010;19.890;2022-10-04T06:05:02;22.00;94.90
19309;DHT22;9789;50.010;19.890;2022-10-04T06:07:37;22.10;95.00
19309;DHT22;9789;50.010;19.890;2022-10-04T06:10:26;22.10;95.10
19309;DHT22;9789;50.010;19.890;2022-10-04T06:13:00;22.10;95.10
19309;DHT22;9789;50.010;19.890;2022-10-04T06:15:38;22.10;95.10
19309;DHT22;9789;50.010;19.890;2022-10-04T06:18:23;22.10;95.10
19309;DHT22;9789;50.010;19.890;2022-10-04T06:21:02;22.10;95.00
19309;DHT22;9789;50.010;19.890;2022-10-04T06:23:34;22.20;95.00
19309;DHT22;9789;50.010;19.890;2022-10-04T06:26:06;22.10;94.90
19309;DHT22;9789;50.010;19.890;2022-10-04T06:28:36;22.20;94.90
19309;DHT22;9789;50.010;19.890;2022-10-04T06:31:11;22.20;94.90
19309;DHT22;9789;50.010;19.890;2022-10-04T06:33:54;22.20;95.00
19309;DHT22;9789;50.010;19.890;2022-10-04T06:36:31;22.30;95.40
19309;DHT22;9789;50.010;19.890;2022-10-04T06:39:16;22.30;95.70
19309;DHT22;9789;50.010;19.890;2022-10-04T06:41:52;22.30;96.20
19309;DHT22;9789;50.010;19.890;2022-10-04T06:44:33;22.30;96.50
19309;DHT22;9789;50.010;19.890;2022-10-04T06:47:13;22.30;96.80
19309;DHT22;9789;50.010;19.890;2022-10-04T06:49:47;22.40;97.30
19309;DHT22;9789;50.010;19.890;2022-10-04T06:52:34;22.40;97.60
19309;DHT22;9789;50.010;19.890;2022-10-04T06:55:19;22.30;97.90
19309;DHT22;9789;50.010;19.890;2022-10-04T06:57:57;22.30;98.10
19309;DHT22;9789;50.010;19.890;2022-10-04T07:00:35;22.40;98.40
19309;DHT22;9789;50.010;19.890;2022-10-04T07:03:08;22.40;98.80
19309;DHT22;9789;50.010;19.890;2022-10-04T07:05:38;22.40;99.20
19309;DHT22;9789;50.010;19.890;2022-10-04T07:08:10;22.40;99.60
19309;DHT22;9789;50.010;19.890;2022-10-04T07:10:40;22.40;99.90
19309;DHT22;9789;50.010;19.890;2022-10-04T07:13:16;22.40;99.90
19309;DHT22;9789;50.010;19.890;2022-10-04T07:15:49;22.40;99.90
19309;DHT22;9789;50.010;19.890;2022-10-04T07:18:19;22.40;99.90
19309;DHT22;9789;50.010;19.890;2022-10-04T07:20:50;22.50;99.90
19309;DHT22;9789;50.010;19.890;2022-10-04T07:23:25;22.50;99.90
19309;DHT22;9789;50.010;19.890;2022-10-04T07:25:56;22.60;99.90
19309;DHT22;9789;50.010;19.890;2022-10-04T07:28:27;22.50;99.90
19309;DHT22;9789;50.010;19.890;2022-10-04T07:31:19;22.50;99.90
19309;DHT22;9789;50.010;19.890;2022-10-04T07:33:49;22.50;99.90
19309;DHT22;9789;50.010;19.890;2022-10-04T07:36:19;22.60;99.90
19309;DHT22;9789;50.010;19.890;2022-10-04T07:38:49;22.60;99.90
19309;DHT22;9789;50.010;19.890;2022-10-04T07:41:19;22.60;99.90
19309;DHT22;9789;50.010;19.890;2022-10-04T07:43:51;22.60;99.90
19309;DHT22;9789;50.010;19.890;2022-10-04T07:46:23;22.60;99.90
19309;DHT22;9789;50.010;19.890;2022-10-04T07:48:52;22.60;99.90
19309;DHT22;9789;50.010;19.890;2022-10-04T07:51:23;22.60;99.90
19309;DHT22;9789;50.010;19.890;2022-10-04T07:53:57;22.70;99.90
19309;DHT22;9789;50.010;19.890;2022-10-04T07:56:26;22.70;99.90
19309;DHT22;9789;50.010;19.890;2022-10-04T07:59:05;22.70;99.90
19309;DHT22;9789;50.010;19.890;2022-10-04T08:01:36;22.70;99.90
19309;DHT22;9789;50.010;19.890;2022-10-04T08:04:16;22.70;99.90
19309;DHT22;9789;50.010;19.890;2022-10-04T08:06:54;22.70;99.90
19309;DHT22;9789;50.010;19.890;2022-10-04T08:09:36;22.70;99.90
19309;DHT22;9789;50.010;19.890;2022-10-04T08:12:13;22.70;99.90
19309;DHT22;9789;50.010;19.890;2022-10-04T08:14:49;22.70;99.90
19309;DHT22;9789;50.010;19.890;2022-10-04T08:17:22;22.70;99.90
19309;DHT22;9789;50.010;19.890;2022-10-04T08:19:56;22.70;99.90
19309;DHT22;9789;50.010;19.890;2022-10-04T08:22:31;22.80;99.90
19309;DHT22;9789;50.010;19.890;2022-10-04T08:25:02;22.80;99.90
19309;DHT22;9789;50.010;19.890;2022-10-04T08:27:34;22.70;99.90
19309;DHT22;9789;50.010;19.890;2022-10-04T08:30:11;22.80;99.90
19309;DHT22;9789;50.010;19.890;2022-10-04T08:32:49;22.80;99.90
19309;DHT22;9789;50.010;19.890;2022-10-04T08:35:28;22.80;99.90
19309;DHT22;9789;50.010;19.890;2022-10-04T08:41:03;22.80;99.90
19309;DHT22;9789;50.010;19.890;2022-10-04T08:43:45;22.80;99.90
19309;DHT22;9789;50.010;19.890;2022-10-04T08:46:22;22.80;99.90
19309;DHT22;9789;50.010;19.890;2022-10-04T08:54:43;22.80;99.90
19309;DHT22;9789;50.010;19.890;2022-10-04T08:57:32;22.80;99.90
19309;DHT22;9789;50.010;19.890;2022-10-04T09:00:10;22.80;99.90
19309;DHT22;9789;50.010;19.890;2022-10-04T09:10:59;22.90;99.90
19309;DHT22;9789;50.010;19.890;2022-10-04T09:13:35;22.90;99.90
19309;DHT22;9789;50.010;19.890;2022-10-04T09:16:07;22.90;99.90
19309;DHT22;9789;50.010;19.890;2022-10-04T09:18:48;22.90;99.90
19309;DHT22;9789;50.010;19.890;2022-10-04T09:21:21;22.90;99.90
19309;DHT22;9789;50.010;19.890;2022-10-04T09:26:57;22.90;99.90
19309;DHT22;9789;50.010;19.890;2022-10-04T09:29:33;22.90;99.90
19309;DHT22;9789;50.010;19.890;2022-10-04T09:32:19;22.90;99.90
19309;DHT22;9789;50.010;19.890;2022-10-04T09:34:58;22.90;99.90
19309;DHT22;9789;50.010;19.890;2022-10-04T09:37:35;22.90;99.90
19309;DHT22;9789;50.010;19.890;2022-10-04T09:43:03;22.90;99.90
19309;DHT22;9789;50.010;19.890;2022-10-04T09:45:46;22.90;99.90
19309;DHT22;9789;50.010;19.890;2022-10-04T09:48:23;22.90;99.90
19309;DHT22;9789;50.010;19.890;2022-10-04T09:54:03;23.00;99.90
19309;DHT22;9789;50.010;19.890;2022-10-04T09:56:39;23.00;99.90
19309;DHT22;9789;50.010;19.890;2022-10-04T09:59:23;23.10;99.90
19309;DHT22;9789;50.010;19.890;2022-10-04T10:02:02;23.10;99.90
19309;DHT22;9789;50.010;19.890;2022-10-04T10:04:39;23.10;99.90
19309;DHT22;9789;50.010;19.890;2022-10-04T10:07:17;23.10;99.90
19309;DHT22;9789;50.010;19.890;2022-10-04T10:09:50;23.10;99.90
19309;DHT22;9789;50.010;19.890;2022-10-04T10:12:42;23.10;99.90
19309;DHT22;9789;50.010;19.890;2022-10-04T10:15:37;23.20;99.90
19309;DHT22;9789;50.010;19.890;2022-10-04T10:18:11;23.20;99.90
19309;DHT22;9789;50.010;19.890;2022-10-04T10:20:50;23.20;99.90
19309;DHT22;9789;50.010;19.890;2022-10-04T10:23:24;23.20;99.90
19309;DHT22;9789;50.010;19.890;2022-10-04T10:26:05;23.20;99.90
19309;DHT22;9789;50.010;19.890;2022-10-04T10:28:41;23.20;99.90
19309;DHT22;9789;50.010;19.890;2022-10-04T10:31:19;23.10;99.90
19309;DHT22;9789;50.010;19.890;2022-10-04T10:34:00;23.10;99.90
19309;DHT22;9789;50.010;19.890;2022-10-04T10:36:36;23.10;99.90
19309;DHT22;9789;50.010;19.890;2022-10-04T10:39:13;23.10;99.90
19309;DHT22;9789;50.010;19.890;2022-10-04T10:41:51;23.10;99.90
19309;DHT22;9789;50.010;19.890;2022-10-04T10:44:28;23.10;99.90
19309;DHT22;9789;50.010;19.890;2022-10-04T10:47:10;23.10;99.90
19309;DHT22;9789;50.010;19.890;2022-10-04T10:49:53;23.10;99.90
19309;DHT22;9789;50.010;19.890;2022-10-04T10:55:28;23.10;99.70
19309;DHT22;9789;50.010;19.890;2022-10-04T10:58:03;23.10;99.70
19309;DHT22;9789;50.010;19.890;2022-10-04T11:00:40;23.10;99.70
19309;DHT22;9789;50.010;19.890;2022-10-04T11:03:20;23.20;99.80
19309;DHT22;9789;50.010;19.890;2022-10-04T11:06:05;23.20;99.90
19309;DHT22;9789;50.010;19.890;2022-10-04T11:08:52;23.20;99.90
19309;DHT22;9789;50.010;19.890;2022-10-04T11:11:35;23.20;99.90
19309;DHT22;9789;50.010;19.890;2022-10-04T11:14:11;23.30;99.90
19309;DHT22;9789;50.010;19.890;2022-10-04T11:16:50;23.30;99.80
19309;DHT22;9789;50.010;19.890;2022-10-04T11:19:29;23.30;99.80
19309;DHT22;9789;50.010;19.890;2022-10-04T11:22:15;23.30;99.60
19309;DHT22;9789;50.010;19.890;2022-10-04T11:27:53;23.40;99.40
19309;DHT22;9789;50.010;19.890;2022-10-04T11:30:25;23.40;99.30
19309;DHT22;9789;50.010;19.890;2022-10-04T11:33:14;23.50;99.20
19309;DHT22;9789;50.010;19.890;2022-10-04T11:35:52;23.40;99.10
19309;DHT22;9789;50.010;19.890;2022-10-04T11:38:27;23.40;98.90
19309;DHT22;9789;50.010;19.890;2022-10-04T11:41:08;23.40;98.70
19309;DHT22;9789;50.010;19.890;2022-10-04T11:43:45;23.40;98.50
19309;DHT22;9789;50.010;19.890;2022-10-04T11:46:23;23.40;98.50
19309;DHT22;9789;50.010;19.890;2022-10-04T11:48:57;23.40;98.40
19309;DHT22;9789;50.010;19.890;2022-10-04T11:54:41;23.30;98.10
19309;DHT22;9789;50.010;19.890;2022-10-04T11:57:22;23.30;98.10
19309;DHT22;9789;50.010;19.890;2022-10-04T11:59:56;23.30;97.90
19309;DHT22;9789;50.010;19.890;2022-10-04T12:02:34;23.30;98.00
19309;DHT22;9789;50.010;19.890;2022-10-04T12:07:56;23.30;98.20
19309;DHT22;9789;50.010;19.890;2022-10-04T12:10:33;23.30;98.40
19309;DHT22;9789;50.010;19.890;2022-10-04T12:13:17;23.30;98.50
19309;DHT22;9789;50.010;19.890;2022-10-04T12:16:03;23.40;98.70
19309;DHT22;9789;50.010;19.890;2022-10-04T12:18:36;23.40;98.80
19309;DHT22;9789;50.010;19.890;2022-10-04T12:21:32;23.40;99.00
19309;DHT22;9789;50.010;19.890;2022-10-04T12:24:08;23.40;99.10
19309;DHT22;9789;50.010;19.890;2022-10-04T12:26:51;23.40;99.20
19309;DHT22;9789;50.010;19.890;2022-10-04T12:29:29;23.40;99.30
19309;DHT22;9789;50.010;19.890;2022-10-04T12:32:03;23.40;99.40
19309;DHT22;9789;50.010;19.890;2022-10-04T12:34:34;23.40;99.50
19309;DHT22;9789;50.010;19.890;2022-10-04T12:37:05;23.40;99.60
19309;DHT22;9789;50.010;19.890;2022-10-04T12:39:49;23.40;99.60
19309;DHT22;9789;50.010;19.890;2022-10-04T12:42:22;23.40;99.60
19309;DHT22;9789;50.010;19.890;2022-10-04T12:45:02;23.40;99.50
19309;DHT22;9789;50.010;19.890;2022-10-04T12:47:43;23.40;99.60
19309;DHT22;9789;50.010;19.890;2022-10-04T12:50:16;23.40;99.60
19309;DHT22;9789;50.010;19.890;2022-10-04T12:52:50;23.40;99.50
19309;DHT22;9789;50.010;19.890;2022-10-04T12:55:20;23.40;99.50
19309;DHT22;9789;50.010;19.890;2022-10-04T12:57:53;23.40;99.50
19309;DHT22;9789;50.010;19.890;2022-10-04T13:00:23;23.50;99.50
19309;DHT22;9789;50.010;19.890;2022-10-04T13:02:57;23.40;99.30
19309;DHT22;9789;50.010;19.890;2022-10-04T13:05:29;23.50;99.30
19309;DHT22;9789;50.010;19.890;2022-10-04T13:08:09;23.50;99.10
19309;DHT22;9789;50.010;19.890;2022-10-04T13:10:41;23.50;99.00
19309;DHT22;9789;50.010;19.890;2022-10-04T13:16:04;23.50;98.80
19309;DHT22;9789;50.010;19.890;2022-10-04T13:18:56;23.50;98.70
19309;DHT22;9789;50.010;19.890;2022-10-04T13:21:44;23.50;98.50
19309;DHT22;9789;50.010;19.890;2022-10-04T13:24:16;23.50;98.30
19309;DHT22;9789;50.010;19.890;2022-10-04T13:26:50;23.50;98.20
19309;DHT22;9789;50.010;19.890;2022-10-04T13:29:22;23.50;98.10
19309;DHT22;9789;50.010;19.890;2022-10-04T13:31:54;23.40;97.70
19309;DHT22;9789;50.010;19.890;2022-10-04T13:34:27;23.40;97.50
19309;DHT22;9789;50.010;19.890;2022-10-04T13:37:12;23.40;97.30
19309;DHT22;9789;50.010;19.890;2022-10-04T13:42:33;23.40;97.20
19309;DHT22;9789;50.010;19.890;2022-10-04T13:48:12;23.30;97.30
19309;DHT22;9789;50.010;19.890;2022-10-04T13:50:52;23.30;97.60
19309;DHT22;9789;50.010;19.890;2022-10-04T13:53:28;23.30;97.90
19309;DHT22;9789;50.010;19.890;2022-10-04T13:56:29;23.30;98.10
19309;DHT22;9789;50.010;19.890;2022-10-04T13:59:09;23.40;98.20
19309;DHT22;9789;50.010;19.890;2022-10-04T14:01:47;23.40;98.10
19309;DHT22;9789;50.010;19.890;2022-10-04T14:04:28;23.50;97.90
19309;DHT22;9789;50.010;19.890;2022-10-04T14:07:13;23.60;97.70
19309;DHT22;9789;50.010;19.890;2022-10-04T14:12:39;23.80;97.40
19309;DHT22;9789;50.010;19.890;2022-10-04T14:18:20;23.90;96.90
19309;DHT22;9789;50.010;19.890;2022-10-04T14:21:13;23.80;96.90
19309;DHT22;9789;50.010;19.890;2022-10-04T14:26:36;23.90;96.80
19309;DHT22;9789;50.010;19.890;2022-10-04T14:29:19;23.90;96.60
19309;DHT22;9789;50.010;19.890;2022-10-04T14:32:00;24.10;96.20
19309;DHT22;9789;50.010;19.890;2022-10-04T14:34:45;24.30;95.80
19309;DHT22;9789;50.010;19.890;2022-10-04T14:40:24;24.70;94.40
19309;DHT22;9789;50.010;19.890;2022-10-04T14:42:58;24.80;94.00
19309;DHT22;9789;50.010;19.890;2022-10-04T14:45:30;24.80;93.60
19309;DHT22;9789;50.010;19.890;2022-10-04T14:50:56;25.00;93.20
19309;DHT22;9789;50.010;19.890;2022-10-04T14:53:29;25.20;92.80
19309;DHT22;9789;50.010;19.890;2022-10-04T14:56:14;25.30;92.30
19309;DHT22;9789;50.010;19.890;2022-10-04T14:58:49;25.40;91.90
19309;DHT22;9789;50.010;19.890;2022-10-04T15:01:21;25.50;91.30
19309;DHT22;9789;50.010;19.890;2022-10-04T15:03:57;25.50;91.10
19309;DHT22;9789;50.010;19.890;2022-10-04T15:06:34;25.50;90.90
19309;DHT22;9789;50.010;19.890;2022-10-04T15:11:54;25.50;90.50
19309;DHT22;9789;50.010;19.890;2022-10-04T15:14:58;25.40;90.30
19309;DHT22;9789;50.010;19.890;2022-10-04T15:17:31;25.10;90.40
19309;DHT22;9789;50.010;19.890;2022-10-04T15:20:04;24.90;90.70
19309;DHT22;9789;50.010;19.890;2022-10-04T15:22:42;24.70;91.00
19309;DHT22;9789;50.010;19.890;2022-10-04T15:27:59;24.40;91.20
19309;DHT22;9789;50.010;19.890;2022-10-04T15:30:33;24.30;91.40
19309;DHT22;9789;50.010;19.890;2022-10-04T15:33:13;24.20;91.50
19309;DHT22;9789;50.010;19.890;2022-10-04T15:35:47;24.10;91.60
19309;DHT22;9789;50.010;19.890;2022-10-04T15:38:18;23.90;91.70
19309;DHT22;9789;50.010;19.890;2022-10-04T15:40:52;23.90;91.80
19309;DHT22;9789;50.010;19.890;2022-10-04T15:43:24;23.80;91.90
19309;DHT22;9789;50.010;19.890;2022-10-04T15:46:03;23.80;91.90
19309;DHT22;9789;50.010;19.890;2022-10-04T15:48:37;23.70;92.00
19309;DHT22;9789;50.010;19.890;2022-10-04T15:51:08;23.70;92.10
19309;DHT22;9789;50.010;19.890;2022-10-04T15:53:48;23.60;92.10
19309;DHT22;9789;50.010;19.890;2022-10-04T15:56:25;23.60;92.10
19309;DHT22;9789;50.010;19.890;2022-10-04T15:59:04;23.50;92.10
19309;DHT22;9789;50.010;19.890;2022-10-04T16:01:39;23.50;92.20
19309;DHT22;9789;50.010;19.890;2022-10-04T16:04:15;23.50;92.30
19309;DHT22;9789;50.010;19.890;2022-10-04T16:06:46;23.40;92.40
19309;DHT22;9789;50.010;19.890;2022-10-04T16:09:18;23.40;92.50
19309;DHT22;9789;50.010;19.890;2022-10-04T16:11:52;23.40;92.60
19309;DHT22;9789;50.010;19.890;2022-10-04T16:14:32;23.30;92.70
19309;DHT22;9789;50.010;19.890;2022-10-04T16:17:10;23.30;92.90
19309;DHT22;9789;50.010;19.890;2022-10-04T16:19:52;23.30;92.90
19309;DHT22;9789;50.010;19.890;2022-10-04T16:22:26;23.20;92.90
19309;DHT22;9789;50.010;19.890;2022-10-04T16:24:56;23.20;93.00
19309;DHT22;9789;50.010;19.890;2022-10-04T16:27:36;23.20;93.10
19309;DHT22;9789;50.010;19.890;2022-10-04T16:30:22;23.20;93.20
19309;DHT22;9789;50.010;19.890;2022-10-04T16:33:02;23.10;93.20
19309;DHT22;9789;50.010;19.890;2022-10-04T16:35:32;23.10;93.30
19309;DHT22;9789;50.010;19.890;2022-10-04T16:38:12;23.10;93.30
19309;DHT22;9789;50.010;19.890;2022-10-04T16:40:46;23.10;93.30
19309;DHT22;9789;50.010;19.890;2022-10-04T16:43:24;23.10;93.30
19309;DHT22;9789;50.010;19.890;2022-10-04T16:46:05;23.00;93.40
19309;DHT22;9789;50.010;19.890;2022-10-04T16:48:38;23.10;93.50
19309;DHT22;9789;50.010;19.890;2022-10-04T16:53:56;23.00;93.60
19309;DHT22;9789;50.010;19.890;2022-10-04T16:56:26;23.10;93.70
19309;DHT22;9789;50.010;19.890;2022-10-04T16:58:55;23.00;93.80
19309;DHT22;9789;50.010;19.890;2022-10-04T17:04:24;23.00;94.00
19309;DHT22;9789;50.010;19.890;2022-10-04T17:06:56;23.00;94.00
19309;DHT22;9789;50.010;19.890;2022-10-04T17:09:26;23.00;94.10
19309;DHT22;9789;50.010;19.890;2022-10-04T17:11:58;23.00;94.30
19309;DHT22;9789;50.010;19.890;2022-10-04T17:14:45;23.00;94.40
19309;DHT22;9789;50.010;19.890;2022-10-04T17:17:20;22.90;94.50
19309;DHT22;9789;50.010;19.890;2022-10-04T17:19:51;22.90;94.60
19309;DHT22;9789;50.010;19.890;2022-10-04T17:22:24;23.00;94.60
19309;DHT22;9789;50.010;19.890;2022-10-04T17:24:57;22.90;94.70
19309;DHT22;9789;50.010;19.890;2022-10-04T17:30:12;22.90;94.90
19309;DHT22;9789;50.010;19.890;2022-10-04T17:32:45;22.90;95.00
19309;DHT22;9789;50.010;19.890;2022-10-04T17:35:30;22.90;95.20
19309;DHT22;9789;50.010;19.890;2022-10-04T17:38:06;22.90;95.30
19309;DHT22;9789;50.010;19.890;2022-10-04T17:40:36;22.90;95.50